createdAt,value
2019-01-28T00:00:16.278Z,98208.09
2019-01-28T00:02:45.148Z,98210.48
2019-01-28T00:05:13.494Z,98220.59
2019-01-28T00:07:41.884Z,98231.30
2019-01-28T00:10:10.220Z,98228.22
2019-01-28T00:12:39.161Z,98228.22
2019-01-28T00:15:08.450Z,98230.05
2019-01-28T00:17:36.987Z,98234.52
2019-01-28T00:20:06.790Z,98227.30
2019-01-28T00:22:35.137Z,98229.94
2019-01-28T00:25:03.594Z,98229.06
2019-01-28T00:27:31.936Z,98229.31
2019-01-28T00:30:00.285Z,98229.72
2019-01-28T00:32:28.652Z,98230.59
2019-01-28T00:34:57.005Z,98232.61
2019-01-28T00:37:25.371Z,98238.08
2019-01-28T00:39:53.727Z,98233.20
2019-01-28T00:42:22.075Z,98235.29
2019-01-28T00:44:50.432Z,98233.05
2019-01-28T00:47:18.773Z,98234.66
2019-01-28T00:49:47.151Z,98238.59
2019-01-28T00:52:15.518Z,98235.36
2019-01-28T00:54:43.947Z,98238.48
2019-01-28T00:57:12.414Z,98244.81
2019-01-28T00:59:40.832Z,98239.24
2019-01-28T01:02:10.015Z,98236.89
2019-01-28T01:04:38.388Z,98240.04
2019-01-28T01:07:06.735Z,98240.66
2019-01-28T01:09:35.082Z,98232.43
2019-01-28T01:12:03.443Z,98239.61
2019-01-28T01:14:31.829Z,98245.06
2019-01-28T01:17:00.225Z,98241.19
2019-01-28T01:19:28.559Z,98244.81
2019-01-28T01:21:56.909Z,98249.06
2019-01-28T01:24:25.365Z,98248.80
2019-01-28T01:26:53.712Z,98252.03
2019-01-28T01:29:22.077Z,98259.73
2019-01-28T01:31:52.114Z,98260.45
2019-01-28T01:34:20.894Z,98256.35
2019-01-28T01:36:49.255Z,98263.42
2019-01-28T01:39:17.613Z,98260.94
2019-01-28T01:41:46.320Z,98265.66
2019-01-28T01:44:14.682Z,98257.82
2019-01-28T01:46:43.030Z,98263.06
2019-01-28T01:49:11.406Z,98259.21
2019-01-28T01:51:39.775Z,98259.47
2019-01-28T01:54:08.157Z,98255.11
2019-01-28T01:56:36.499Z,98252.03
2019-01-28T01:59:04.920Z,98249.31
2019-01-28T02:01:33.329Z,98250.20
2019-01-28T02:04:01.740Z,98250.96
2019-01-28T02:06:30.085Z,98255.55
2019-01-28T02:08:58.467Z,98250.67
2019-01-28T02:11:26.808Z,98246.42
2019-01-28T02:13:55.152Z,98247.78
2019-01-28T02:16:23.520Z,98247.05
2019-01-28T02:18:51.873Z,98246.91
2019-01-28T02:21:20.388Z,98253.09
2019-01-28T02:23:48.908Z,98246.61
2019-01-28T02:26:17.293Z,98241.99
2019-01-28T02:28:45.634Z,98238.77
2019-01-28T02:31:13.972Z,98233.01
2019-01-28T02:33:42.331Z,98237.99
2019-01-28T02:36:10.769Z,98237.12
2019-01-28T02:38:39.129Z,98237.26
2019-01-28T02:41:07.660Z,98227.88
2019-01-28T02:43:36.006Z,98223.66
2019-01-28T02:46:04.372Z,98229.78
2019-01-28T02:48:33.103Z,98229.53
2019-01-28T02:51:01.711Z,98227.92
2019-01-28T02:53:30.102Z,98224.18
2019-01-28T02:55:58.447Z,98234.88
2019-01-28T02:58:26.797Z,98223.41
2019-01-28T03:00:56.158Z,98228.14
2019-01-28T03:03:24.521Z,98220.25
2019-01-28T03:05:52.914Z,98222.48
2019-01-28T03:08:21.221Z,98216.66
2019-01-28T03:10:49.568Z,98219.63
2019-01-28T03:13:19.557Z,98220.77
2019-01-28T03:15:47.930Z,98213.18
2019-01-28T03:18:16.278Z,98211.53
2019-01-28T03:20:44.624Z,98206.70
2019-01-28T03:23:13.029Z,98209.12
2019-01-28T03:25:41.373Z,98210.48
2019-01-28T03:28:09.751Z,98205.97
2019-01-28T03:30:38.577Z,98206.84
2019-01-28T03:33:06.912Z,98206.89
2019-01-28T03:35:35.269Z,98202.05
2019-01-28T03:38:03.646Z,98204.84
2019-01-28T03:40:32.006Z,98205.55
2019-01-28T03:43:00.366Z,98201.33
2019-01-28T03:45:28.712Z,98200.09
2019-01-28T03:47:57.053Z,98200.23
2019-01-28T03:50:25.441Z,98193.34
2019-01-28T03:52:53.775Z,98203.16
2019-01-28T03:55:22.125Z,98202.54
2019-01-28T03:57:50.496Z,98199.75
2019-01-28T04:00:20.831Z,98205.32
2019-01-28T04:02:49.185Z,98190.33
2019-01-28T04:05:17.560Z,98190.58
2019-01-28T04:07:45.963Z,98197.80
2019-01-28T04:10:17.114Z,98185.09
2019-01-28T04:12:45.513Z,98198.47
2019-01-28T04:15:16.220Z,98195.66
2019-01-28T04:17:44.574Z,98188.66
2019-01-28T04:20:14.965Z,98180.78
2019-01-28T04:22:43.306Z,98176.82
2019-01-28T04:25:12.515Z,98175.31
2019-01-28T04:27:40.846Z,98180.04
2019-01-28T04:30:12.523Z,98176.52
2019-01-28T04:32:40.859Z,98170.77
2019-01-28T04:35:09.395Z,98170.08
2019-01-28T04:37:37.746Z,98169.09
2019-01-28T04:40:09.241Z,98164.37
2019-01-28T04:42:37.604Z,98167.02
2019-01-28T04:45:14.717Z,98166.13
2019-01-28T04:47:43.205Z,98161.41
2019-01-28T04:50:16.523Z,98160.20
2019-01-28T04:52:44.983Z,98165.03
2019-01-28T04:55:14.287Z,98158.88
2019-01-28T04:57:42.661Z,98158.87
2019-01-28T05:00:23.186Z,98157.94
2019-01-28T05:02:51.755Z,98153.69
2019-01-28T05:05:20.186Z,98152.66
2019-01-28T05:07:48.562Z,98148.34
2019-01-28T05:10:19.107Z,98148.13
2019-01-28T05:12:47.467Z,98144.77
2019-01-28T05:15:17.460Z,98141.17
2019-01-28T05:17:45.828Z,98138.38
2019-01-28T05:20:19.678Z,98139.77
2019-01-28T05:22:48.343Z,98131.63
2019-01-28T05:25:17.424Z,98129.75
2019-01-28T05:27:46.328Z,98130.84
2019-01-28T05:30:19.792Z,98132.14
2019-01-28T05:32:48.165Z,98122.19
2019-01-28T05:35:18.001Z,98125.23
2019-01-28T05:37:46.484Z,98119.22
2019-01-28T05:40:19.479Z,98115.44
2019-01-28T05:42:47.819Z,98118.45
2019-01-28T05:45:17.513Z,98115.22
2019-01-28T05:47:45.880Z,98117.56
2019-01-28T05:50:14.983Z,98121.80
2019-01-28T05:52:43.369Z,98116.58
2019-01-28T05:55:14.397Z,98115.95
2019-01-28T05:57:42.765Z,98124.88
2019-01-28T06:00:36.939Z,98121.03
2019-01-28T06:03:05.398Z,98116.05
2019-01-28T06:05:33.754Z,98120.42
2019-01-28T06:08:02.111Z,98118.44
2019-01-28T06:10:30.510Z,98123.69
2019-01-28T06:12:58.857Z,98127.31
2019-01-28T06:15:27.856Z,98122.55
2019-01-28T06:17:56.203Z,98124.56
2019-01-28T06:20:26.508Z,98118.95
2019-01-28T06:22:54.865Z,98121.76
2019-01-28T06:25:23.235Z,98115.90
2019-01-28T06:27:51.612Z,98125.34
2019-01-28T06:30:28.340Z,98131.41
2019-01-28T06:32:56.720Z,98130.06
2019-01-28T06:35:25.096Z,98129.23
2019-01-28T06:37:53.494Z,98131.84
2019-01-28T06:40:27.083Z,98126.28
2019-01-28T06:42:55.594Z,98133.28
2019-01-28T06:45:24.074Z,98131.30
2019-01-28T06:47:52.446Z,98134.31
2019-01-28T06:50:22.043Z,98133.43
2019-01-28T06:52:50.561Z,98146.83
2019-01-28T06:55:19.350Z,98147.45
2019-01-28T06:57:48.231Z,98146.05
2019-01-28T07:00:19.796Z,98141.06
2019-01-28T07:02:48.336Z,98148.65
2019-01-28T07:05:16.786Z,98148.13
2019-01-28T07:07:45.301Z,98145.16
2019-01-28T07:10:13.929Z,98148.50
2019-01-28T07:12:42.266Z,98153.11
2019-01-28T07:15:12.600Z,98149.22
2019-01-28T07:17:41.010Z,98155.56
2019-01-28T07:20:18.309Z,98148.34
2019-01-28T07:22:46.657Z,98151.98
2019-01-28T07:25:15.050Z,98154.36
2019-01-28T07:27:43.428Z,98157.63
2019-01-28T07:30:15.029Z,98158.61
2019-01-28T07:32:43.366Z,98154.41
2019-01-28T07:35:12.869Z,98167.33
2019-01-28T07:37:41.304Z,98167.55
2019-01-28T07:40:14.694Z,98169.31
2019-01-28T07:42:43.066Z,98172.06
2019-01-28T07:45:17.590Z,98173.77
2019-01-28T07:47:46.226Z,98170.61
2019-01-28T07:50:14.943Z,98174.70
2019-01-28T07:52:43.300Z,98178.91
2019-01-28T07:55:13.291Z,98179.13
2019-01-28T07:57:41.856Z,98180.52
2019-01-28T08:00:13.514Z,98185.34
2019-01-28T08:02:41.891Z,98186.70
2019-01-28T08:05:12.171Z,98181.83
2019-01-28T08:07:40.555Z,98190.66
2019-01-28T08:10:11.763Z,98184.30
2019-01-28T08:12:40.107Z,98178.03
2019-01-28T08:15:11.656Z,98182.24
2019-01-28T08:17:40.008Z,98187.28
2019-01-28T08:20:11.745Z,98181.83
2019-01-28T08:22:40.277Z,98188.31
2019-01-28T08:25:11.374Z,98187.53
2019-01-28T08:27:39.816Z,98146.47
2019-01-28T08:30:11.456Z,98191.64
2019-01-28T08:32:39.858Z,98195.63
2019-01-28T08:35:09.890Z,98139.30
2019-01-28T08:37:38.311Z,98192.31
2019-01-28T08:40:10.045Z,98191.47
2019-01-28T08:42:38.381Z,98197.04
2019-01-28T08:45:11.841Z,98199.63
2019-01-28T08:47:40.188Z,98193.15
2019-01-28T08:50:25.894Z,98190.29
2019-01-28T08:52:54.319Z,98193.77
2019-01-28T08:55:25.451Z,98201.36
2019-01-28T08:57:54.244Z,98200.98
2019-01-28T09:00:34.519Z,98195.02
2019-01-28T09:03:02.910Z,98192.52
2019-01-28T09:05:31.265Z,98190.28
2019-01-28T09:07:59.598Z,98197.51
2019-01-28T09:10:29.180Z,98200.27
2019-01-28T09:12:57.597Z,98198.38
2019-01-28T09:15:25.997Z,98206.19
2019-01-28T09:17:54.411Z,98206.19
2019-01-28T09:20:28.238Z,98206.02
2019-01-28T09:22:56.876Z,98209.60
2019-01-28T09:25:25.218Z,98209.49
2019-01-28T09:27:53.579Z,98220.62
2019-01-28T09:30:26.978Z,98222.53
2019-01-28T09:32:55.451Z,98223.16
2019-01-28T09:35:23.861Z,98224.45
2019-01-28T09:37:52.241Z,98228.34
2019-01-28T09:40:26.143Z,98226.94
2019-01-28T09:42:54.771Z,98225.28
2019-01-28T09:45:28.701Z,98236.30
2019-01-28T09:47:57.384Z,98229.30
2019-01-28T09:50:25.956Z,98230.69
2019-01-28T09:52:54.312Z,98234.02
2019-01-28T09:55:22.658Z,98230.85
2019-01-28T09:57:51.010Z,98239.52
2019-01-28T10:00:26.508Z,98238.95
2019-01-28T10:02:55.207Z,98243.40
2019-01-28T10:05:23.574Z,98241.07
2019-01-28T10:07:51.922Z,98240.70
2019-01-28T10:10:21.053Z,98238.47
2019-01-28T10:12:49.411Z,98244.07
2019-01-28T10:15:19.792Z,98244.28
2019-01-28T10:17:48.153Z,98246.20
2019-01-28T10:20:28.222Z,98243.91
2019-01-28T10:22:56.580Z,98253.52
2019-01-28T10:25:24.954Z,98255.49
2019-01-28T10:27:53.289Z,98252.75
2019-01-28T10:30:32.830Z,98255.14
2019-01-28T10:33:01.285Z,98257.42
2019-01-28T10:35:30.683Z,98257.67
2019-01-28T10:37:59.060Z,98259.39
2019-01-28T10:40:29.935Z,98259.64
2019-01-28T10:42:58.286Z,98257.36
2019-01-28T10:45:26.665Z,98267.91
2019-01-28T10:48:00.507Z,98259.17
2019-01-28T10:50:26.554Z,98261.34
2019-01-28T10:52:55.432Z,98258.69
2019-01-28T10:55:24.963Z,98252.17
2019-01-28T10:57:53.318Z,98260.01
2019-01-28T11:00:27.633Z,98257.83
2019-01-28T11:02:56.649Z,98258.09
2019-01-28T11:05:24.993Z,98263.49
2019-01-28T11:07:53.395Z,98265.25
2019-01-28T11:10:23.976Z,98267.70
2019-01-28T11:12:52.449Z,98269.51
2019-01-28T11:15:25.973Z,98272.98
2019-01-28T11:17:54.390Z,98268.95
2019-01-28T11:20:23.102Z,98268.31
2019-01-28T11:22:51.476Z,98274.31
2019-01-28T11:25:22.325Z,98275.22
2019-01-28T11:27:52.327Z,98279.41
2019-01-28T11:30:31.096Z,98272.48
2019-01-28T11:32:59.513Z,98270.58
2019-01-28T11:35:27.851Z,98277.61
2019-01-28T11:37:57.028Z,98281.62
2019-01-28T11:40:25.511Z,98286.35
2019-01-28T11:42:54.028Z,98291.24
2019-01-28T11:45:28.324Z,98285.80
2019-01-28T11:47:57.049Z,98293.13
2019-01-28T11:50:25.416Z,98293.13
2019-01-28T11:52:53.855Z,98304.01
2019-01-28T11:55:22.196Z,98302.84
2019-01-28T11:57:50.684Z,98300.05
2019-01-28T12:00:32.828Z,98303.69
2019-01-28T12:03:01.188Z,98310.91
2019-01-28T12:05:29.583Z,98308.41
2019-01-28T12:07:57.957Z,98313.30
2019-01-28T12:10:26.346Z,98313.28
2019-01-28T12:12:54.867Z,98318.37
2019-01-28T12:15:23.392Z,98316.38
2019-01-28T12:17:51.785Z,98317.78
2019-01-28T12:20:20.584Z,98325.64
2019-01-28T12:22:48.940Z,98335.84
2019-01-28T12:25:17.469Z,98337.23
2019-01-28T12:27:45.824Z,98337.78
2019-01-28T12:30:25.844Z,98339.28
2019-01-28T12:32:54.246Z,98345.73
2019-01-28T12:35:22.609Z,98350.62
2019-01-28T12:37:51.014Z,98360.48
2019-01-28T12:40:20.859Z,98367.66
2019-01-28T12:42:49.199Z,98366.34
2019-01-28T12:45:22.122Z,98368.55
2019-01-28T12:47:50.962Z,98371.70
2019-01-28T12:50:20.970Z,98372.98
2019-01-28T12:52:49.317Z,98378.98
2019-01-28T12:55:19.427Z,98386.63
2019-01-28T12:57:47.942Z,98387.53
2019-01-28T13:00:32.611Z,98392.91
2019-01-28T13:03:01.292Z,98392.80
2019-01-28T13:05:29.670Z,98397.02
2019-01-28T13:07:58.084Z,98399.02
2019-01-28T13:10:26.967Z,98402.66
2019-01-28T13:12:55.396Z,98408.00
2019-01-28T13:15:31.472Z,98412.73
2019-01-28T13:17:59.818Z,98416.11
2019-01-28T13:20:28.277Z,98422.70
2019-01-28T13:22:56.619Z,98419.44
2019-01-28T13:25:27.983Z,98421.92
2019-01-28T13:27:56.359Z,98426.91
2019-01-28T13:30:27.134Z,98428.92
2019-01-28T13:32:56.063Z,98424.29
2019-01-28T13:35:25.055Z,98436.63
2019-01-28T13:37:53.478Z,98443.84
2019-01-28T13:40:21.819Z,98446.08
2019-01-28T13:42:50.599Z,98451.45
2019-01-28T13:45:20.565Z,98453.59
2019-01-28T13:47:49.596Z,98458.08
2019-01-28T13:50:23.943Z,98465.64
2019-01-28T13:52:52.658Z,98474.74
2019-01-28T13:55:22.338Z,98477.50
2019-01-28T13:57:50.693Z,98488.34
2019-01-28T14:00:24.747Z,98488.70
2019-01-28T14:02:53.618Z,98492.57
2019-01-28T14:05:21.989Z,98494.94
2019-01-28T14:07:50.397Z,98502.54
2019-01-28T14:10:20.471Z,98508.38
2019-01-28T14:12:48.921Z,98512.61
2019-01-28T14:15:20.532Z,98528.52
2019-01-28T14:17:49.221Z,98528.52
2019-01-28T14:20:22.240Z,98531.77
2019-01-28T14:22:50.568Z,98537.23
2019-01-28T14:25:19.008Z,98537.36
2019-01-28T14:27:49.672Z,98537.36
2019-01-28T14:30:23.609Z,98542.94
2019-01-28T14:32:52.309Z,98551.66
2019-01-28T14:35:20.659Z,98556.39
2019-01-28T14:37:49.056Z,98554.38
2019-01-28T14:40:22.656Z,98559.60
2019-01-28T14:42:51.009Z,98563.94
2019-01-28T14:45:19.452Z,98571.04
2019-01-28T14:47:47.798Z,98581.00
2019-01-28T14:50:22.016Z,98582.00
2019-01-28T14:52:50.667Z,98579.52
2019-01-28T14:55:18.996Z,98595.73
2019-01-28T14:57:47.404Z,98595.73
2019-01-28T15:00:19.155Z,98601.20
2019-01-28T15:02:47.503Z,98603.81
2019-01-28T15:05:15.890Z,98608.95
2019-01-28T15:07:44.244Z,98615.17
2019-01-28T15:10:15.526Z,98606.94
2019-01-28T15:12:44.451Z,98615.90
2019-01-28T15:15:15.900Z,98626.09
2019-01-28T15:17:44.673Z,98620.39
2019-01-28T15:20:13.181Z,98628.74
2019-01-28T15:22:41.538Z,98633.48
2019-01-28T15:25:12.620Z,98636.22
2019-01-28T15:27:40.984Z,98640.08
2019-01-28T15:30:12.803Z,98640.08
2019-01-28T15:32:41.181Z,98641.48
2019-01-28T15:35:11.409Z,98646.34
2019-01-28T15:37:39.798Z,98647.07
2019-01-28T15:40:14.608Z,98654.05
2019-01-28T15:42:42.958Z,98661.00
2019-01-28T15:45:14.857Z,98662.61
2019-01-28T15:47:43.266Z,98666.73
2019-01-28T15:50:13.973Z,98672.20
2019-01-28T15:52:42.401Z,98677.30
2019-01-28T15:55:13.730Z,98679.78
2019-01-28T15:57:42.187Z,98616.77
2019-01-28T16:00:16.448Z,98687.63
2019-01-28T16:02:45.111Z,98691.84
2019-01-28T16:05:13.460Z,98692.12
2019-01-28T16:07:41.841Z,98696.10
2019-01-28T16:10:13.450Z,98701.73
2019-01-28T16:12:41.830Z,98706.58
2019-01-28T16:15:13.474Z,98709.31
2019-01-28T16:17:41.858Z,98718.39
2019-01-28T16:20:18.476Z,98718.16
2019-01-28T16:22:42.251Z,98723.53
2019-01-28T16:25:12.204Z,98737.95
2019-01-28T16:27:40.605Z,98732.92
2019-01-28T16:30:18.094Z,98741.38
2019-01-28T16:32:47.185Z,98741.84
2019-01-28T16:35:17.991Z,98746.92
2019-01-28T16:37:46.357Z,98752.75
2019-01-28T16:40:17.235Z,98751.92
2019-01-28T16:42:45.637Z,98761.28
2019-01-28T16:45:16.052Z,98762.65
2019-01-28T16:47:44.429Z,98764.02
2019-01-28T16:50:26.775Z,98761.53
2019-01-28T16:52:51.016Z,98759.56
2019-01-28T16:55:19.401Z,98773.15
2019-01-28T16:57:47.792Z,98780.14
2019-01-28T17:00:27.458Z,98784.26
2019-01-28T17:02:55.836Z,98791.26
2019-01-28T17:05:24.172Z,98795.77
2019-01-28T17:07:52.564Z,98791.78
2019-01-28T17:10:20.905Z,98802.10
2019-01-28T17:12:49.293Z,98815.94
2019-01-28T17:15:19.175Z,98819.45
2019-01-28T17:17:47.531Z,98833.48
2019-01-28T17:20:18.926Z,98836.30
2019-01-28T17:22:47.818Z,98843.22
2019-01-28T17:25:19.352Z,98845.86
2019-01-28T17:27:47.703Z,98893.09
2019-01-28T17:30:30.753Z,98863.33
2019-01-28T17:32:59.190Z,98876.12
2019-01-28T17:35:29.528Z,98885.97
2019-01-28T17:37:57.892Z,98903.13
2019-01-28T17:40:28.951Z,98893.67
2019-01-28T17:42:57.329Z,98906.55
2019-01-28T17:45:26.879Z,98910.68
2019-01-28T17:47:55.263Z,98927.86
2019-01-28T17:50:25.076Z,98927.28
2019-01-28T17:52:53.373Z,98932.03
2019-01-28T17:55:21.748Z,98946.53
2019-01-28T17:57:50.089Z,98951.36
2019-01-28T18:00:29.318Z,98956.11
2019-01-28T18:02:52.004Z,98957.73
2019-01-28T18:05:20.373Z,98970.05
2019-01-28T18:07:48.759Z,98973.05
2019-01-28T18:10:17.497Z,98983.30
2019-01-28T18:12:45.908Z,98975.62
2019-01-28T18:15:23.109Z,98989.59
2019-01-28T18:17:51.465Z,98992.19
2019-01-28T18:20:20.109Z,98998.33
2019-01-28T18:22:48.454Z,99004.05
2019-01-28T18:25:19.246Z,99010.68
2019-01-28T18:27:47.636Z,99019.66
2019-01-28T18:30:40.438Z,99012.70
2019-01-28T18:33:08.799Z,99015.33
2019-01-28T18:35:37.165Z,99021.32
2019-01-28T18:38:05.954Z,99028.17
2019-01-28T18:40:34.320Z,99047.18
2019-01-28T18:43:02.672Z,99052.42
2019-01-28T18:45:31.050Z,99058.98
2019-01-28T18:47:59.410Z,99068.77
2019-01-28T18:50:27.804Z,99065.05
2019-01-28T18:52:56.123Z,99073.06
2019-01-28T18:55:24.520Z,99079.40
2019-01-28T18:57:52.892Z,99090.09
2019-01-28T19:00:24.500Z,99102.25
2019-01-28T19:02:53.524Z,99109.41
2019-01-28T19:05:23.509Z,99110.44
2019-01-28T19:07:53.480Z,99116.99
2019-01-28T19:10:23.544Z,99132.09
2019-01-28T19:12:53.523Z,99133.04
2019-01-28T19:15:23.513Z,99136.55
2019-01-28T19:17:53.536Z,99134.98
2019-01-28T19:20:26.067Z,99151.65
2019-01-28T19:22:54.505Z,99156.05
2019-01-28T19:25:22.900Z,99157.11
2019-01-28T19:27:51.289Z,99163.52
2019-01-28T19:30:19.651Z,99170.87
2019-01-28T19:32:47.991Z,99182.58
2019-01-28T19:35:16.343Z,99182.78
2019-01-28T19:37:44.695Z,99186.54
2019-01-28T19:40:13.877Z,99196.20
2019-01-28T19:42:42.523Z,99201.32
2019-01-28T19:45:17.648Z,99201.50
2019-01-28T19:47:46.217Z,99208.41
2019-01-28T19:50:17.417Z,99217.16
2019-01-28T19:52:45.814Z,99214.88
2019-01-28T19:55:15.481Z,99223.47
2019-01-28T19:57:43.836Z,99240.00
2019-01-28T20:00:15.503Z,99243.93
2019-01-28T20:02:43.848Z,99241.75
2019-01-28T20:05:12.359Z,99248.94
2019-01-28T20:07:40.751Z,99255.21
2019-01-28T20:10:11.345Z,99263.74
2019-01-28T20:12:39.761Z,99263.29
2019-01-28T20:15:11.645Z,99273.56
2019-01-28T20:17:40.010Z,99269.29
2019-01-28T20:20:11.824Z,99277.23
2019-01-28T20:22:40.181Z,99274.95
2019-01-28T20:25:11.188Z,99272.83
2019-01-28T20:27:39.554Z,99277.92
2019-01-28T20:30:16.831Z,99284.23
2019-01-28T20:32:45.269Z,99289.04
2019-01-28T20:35:14.555Z,99301.59
2019-01-28T20:37:43.000Z,99306.72
2019-01-28T20:40:13.187Z,99308.11
2019-01-28T20:42:41.532Z,99310.33
2019-01-28T20:45:27.974Z,99315.34
2019-01-28T20:47:56.346Z,99327.89
2019-01-28T20:50:26.979Z,99329.84
2019-01-28T20:52:55.353Z,99330.87
2019-01-28T20:55:23.793Z,99338.47
2019-01-28T20:57:52.154Z,99337.42
2019-01-28T21:00:25.529Z,99341.84
2019-01-28T21:02:53.966Z,99357.08
2019-01-28T21:05:23.353Z,99356.14
2019-01-28T21:07:51.651Z,99366.91
2019-01-28T21:10:21.384Z,99366.36
2019-01-28T21:12:50.601Z,99372.72
2019-01-28T21:15:19.295Z,99369.30
2019-01-28T21:17:48.388Z,99374.06
2019-01-28T21:20:18.566Z,99374.25
2019-01-28T21:22:47.378Z,99380.41
2019-01-28T21:25:17.771Z,99384.33
2019-01-28T21:27:46.128Z,99385.53
2019-01-28T21:30:26.077Z,99387.23
2019-01-28T21:32:54.426Z,99397.34
2019-01-28T21:35:29.239Z,99396.66
2019-01-28T21:38:01.553Z,99399.44
2019-01-28T21:40:29.896Z,99399.09
2019-01-28T21:42:58.430Z,99407.08
2019-01-28T21:45:26.889Z,99413.74
2019-01-28T21:47:55.580Z,99409.67
2019-01-28T21:50:27.799Z,99419.05
2019-01-28T21:52:56.185Z,99419.64
2019-01-28T21:55:24.564Z,99426.59
2019-01-28T21:57:52.936Z,99435.28
2019-01-28T22:00:21.596Z,99439.75
2019-01-28T22:02:50.011Z,99441.84
2019-01-28T22:05:18.409Z,99443.81
2019-01-28T22:07:46.750Z,99443.66
2019-01-28T22:10:15.690Z,99454.79
2019-01-28T22:12:44.073Z,99447.73
2019-01-28T22:15:17.104Z,99449.57
2019-01-28T22:17:45.454Z,99455.16
2019-01-28T22:20:15.370Z,99461.33
2019-01-28T22:22:43.710Z,99464.23
2019-01-28T22:25:16.329Z,99469.11
2019-01-28T22:27:44.806Z,99467.40
2019-01-28T22:30:20.431Z,99475.22
2019-01-28T22:32:48.822Z,99480.37
2019-01-28T22:35:17.220Z,99480.43
2019-01-28T22:37:45.581Z,99486.79
2019-01-28T22:40:16.872Z,99482.41
2019-01-28T22:42:45.261Z,99493.56
2019-01-28T22:45:18.660Z,99491.97
2019-01-28T22:47:46.986Z,99495.37
2019-01-28T22:50:18.213Z,99498.41
2019-01-28T22:52:46.661Z,99505.53
2019-01-28T22:55:16.757Z,99514.36
2019-01-28T22:57:45.130Z,99509.25
2019-01-28T23:00:23.903Z,99520.07
2019-01-28T23:02:52.292Z,99516.70
2019-01-28T23:05:20.656Z,99519.37
2019-01-28T23:07:49.009Z,99520.09
2019-01-28T23:10:17.408Z,99525.77
2019-01-28T23:12:45.765Z,99536.19
2019-01-28T23:15:14.127Z,99536.91
2019-01-28T23:17:42.655Z,99534.23
2019-01-28T23:20:11.186Z,99537.28
2019-01-28T23:22:39.566Z,99533.92
2019-01-28T23:25:07.902Z,99533.05
2019-01-28T23:27:36.265Z,99535.36
2019-01-28T23:30:07.526Z,99535.55
2019-01-28T23:32:35.954Z,99543.49
2019-01-28T23:35:07.084Z,99542.82
2019-01-28T23:37:35.461Z,99545.81
2019-01-28T23:40:10.126Z,99540.36
2019-01-28T23:42:38.756Z,99543.52
2019-01-28T23:45:12.251Z,99545.81
2019-01-28T23:47:40.972Z,99542.28
2019-01-28T23:50:13.605Z,99547.23
2019-01-28T23:52:41.963Z,99549.02
2019-01-28T23:55:10.607Z,99551.13
2019-01-28T23:57:38.956Z,99554.69
